createdAt,value
2019-03-02T00:00:54.139Z,70.94
2019-03-02T00:03:34.699Z,71.19
2019-03-02T00:06:00.877Z,71.33
2019-03-02T00:08:26.146Z,71.05
2019-03-02T00:10:55.075Z,71.26
2019-03-02T00:13:26.640Z,71.13
2019-03-02T00:16:07.549Z,71.05
2019-03-02T00:18:33.894Z,71.00
2019-03-02T00:21:09.368Z,71.30
2019-03-02T00:23:50.888Z,71.43
2019-03-02T00:26:22.496Z,71.69
2019-03-02T00:28:57.566Z,71.58
2019-03-02T00:31:42.104Z,71.39
2019-03-02T00:34:16.107Z,71.55
2019-03-02T00:36:58.316Z,71.60
2019-03-02T00:39:25.910Z,71.46
2019-03-02T00:41:58.114Z,71.33
2019-03-02T00:44:35.692Z,71.86
2019-03-02T00:47:04.571Z,71.89
2019-03-02T00:49:39.152Z,72.01
2019-03-02T00:52:10.814Z,72.36
2019-03-02T00:54:43.452Z,72.29
2019-03-02T00:57:14.843Z,71.76
2019-03-02T00:59:50.956Z,71.90
2019-03-02T01:02:28.303Z,72.29
2019-03-02T01:05:01.883Z,72.20
2019-03-02T01:07:28.563Z,70.61
2019-03-02T01:10:00.715Z,71.62
2019-03-02T01:12:29.846Z,71.70
2019-03-02T01:14:59.045Z,71.81
2019-03-02T01:17:30.770Z,72.09
2019-03-02T01:20:02.851Z,72.26
2019-03-02T01:22:31.931Z,72.64
2019-03-02T01:25:01.007Z,72.47
2019-03-02T01:27:31.709Z,72.65
2019-03-02T01:29:59.503Z,72.48
2019-03-02T01:32:28.688Z,71.14
2019-03-02T01:34:57.705Z,72.34
2019-03-02T01:37:26.803Z,72.53
2019-03-02T01:39:56.046Z,72.40
2019-03-02T01:42:25.905Z,70.89
2019-03-02T01:44:54.337Z,71.78
2019-03-02T01:47:23.398Z,72.17
2019-03-02T01:49:52.597Z,72.56
2019-03-02T01:52:21.714Z,72.44
2019-03-02T01:54:52.546Z,72.72
2019-03-02T01:57:20.095Z,72.48
2019-03-02T01:59:49.284Z,72.27
2019-03-02T02:02:18.463Z,72.27
2019-03-02T02:04:48.096Z,72.23
2019-03-02T02:07:18.001Z,73.07
2019-03-02T02:09:46.501Z,73.27
2019-03-02T02:12:15.651Z,73.49
2019-03-02T02:14:44.918Z,73.77
2019-03-02T02:17:14.468Z,74.17
2019-03-02T02:19:42.983Z,73.88
2019-03-02T02:22:12.295Z,73.83
2019-03-02T02:24:41.419Z,73.74
2019-03-02T02:27:10.669Z,74.26
2019-03-02T02:29:40.659Z,74.59
2019-03-02T02:32:09.064Z,74.87
2019-03-02T02:34:38.107Z,74.52
2019-03-02T02:37:07.193Z,73.55
2019-03-02T02:39:36.467Z,75.02
2019-03-02T02:42:06.910Z,75.34
2019-03-02T02:44:37.655Z,75.50
2019-03-02T02:47:07.115Z,76.14
2019-03-02T02:49:33.377Z,75.95
2019-03-02T02:52:02.581Z,75.97
2019-03-02T02:54:31.761Z,75.81
2019-03-02T02:57:00.822Z,75.98
2019-03-02T02:59:33.988Z,75.96
2019-03-02T03:01:59.201Z,74.38
2019-03-02T03:04:32.458Z,75.36
2019-03-02T03:06:57.648Z,75.78
2019-03-02T03:09:34.732Z,76.27
2019-03-02T03:12:03.787Z,76.51
2019-03-02T03:14:33.037Z,76.63
2019-03-02T03:17:02.125Z,76.64
2019-03-02T03:19:32.420Z,76.44
2019-03-02T03:22:02.186Z,76.50
2019-03-02T03:24:29.852Z,76.66
2019-03-02T03:26:58.950Z,77.03
2019-03-02T03:29:28.207Z,77.34
2019-03-02T03:32:08.113Z,76.88
2019-03-02T03:34:30.161Z,76.95
2019-03-02T03:36:55.942Z,76.88
2019-03-02T03:39:25.087Z,76.63
2019-03-02T03:41:54.149Z,76.62
2019-03-02T03:44:27.145Z,76.73
2019-03-02T03:46:56.053Z,76.96
2019-03-02T03:49:21.655Z,77.04
2019-03-02T03:51:50.825Z,76.59
2019-03-02T03:54:19.960Z,76.77
2019-03-02T03:56:49.109Z,77.16
2019-03-02T03:59:19.152Z,77.52
2019-03-02T04:01:52.073Z,77.25
2019-03-02T04:04:16.891Z,77.52
2019-03-02T04:06:46.063Z,78.10
2019-03-02T04:09:15.254Z,77.75
2019-03-02T04:11:44.575Z,78.10
2019-03-02T04:14:13.685Z,78.22
2019-03-02T04:16:43.175Z,78.18
2019-03-02T04:19:16.949Z,78.25
2019-03-02T04:21:47.592Z,77.30
2019-03-02T04:24:16.878Z,77.69
2019-03-02T04:26:46.083Z,76.17
2019-03-02T04:29:15.294Z,77.57
2019-03-02T04:31:48.560Z,78.03
2019-03-02T04:34:20.254Z,77.49
2019-03-02T04:36:43.196Z,77.71
2019-03-02T04:39:13.600Z,75.70
2019-03-02T04:41:41.104Z,77.12
2019-03-02T04:44:10.287Z,77.27
2019-03-02T04:46:39.500Z,76.89
2019-03-02T04:49:10.952Z,76.73
2019-03-02T04:51:38.785Z,76.84
2019-03-02T04:54:07.024Z,76.68
2019-03-02T04:56:36.069Z,77.42
2019-03-02T04:59:05.392Z,77.45
2019-03-02T05:01:34.618Z,77.40
2019-03-02T05:04:03.830Z,77.35
2019-03-02T05:06:33.097Z,77.66
2019-03-02T05:09:02.261Z,77.78
2019-03-02T05:11:35.444Z,78.25
2019-03-02T05:14:03.977Z,76.59
2019-03-02T05:16:33.794Z,77.58
2019-03-02T05:19:12.382Z,77.74
2019-03-02T05:21:43.535Z,78.57
2019-03-02T05:24:10.228Z,78.53
2019-03-02T05:26:39.418Z,78.23
2019-03-02T05:29:14.809Z,76.62
2019-03-02T05:31:42.055Z,77.60
2019-03-02T05:34:13.080Z,77.25
2019-03-02T05:36:42.191Z,77.11
2019-03-02T05:39:13.808Z,77.51
2019-03-02T05:41:41.050Z,77.70
2019-03-02T05:44:10.049Z,78.01
2019-03-02T05:46:39.154Z,78.21
2019-03-02T05:49:08.324Z,77.97
2019-03-02T05:51:38.984Z,78.27
2019-03-02T05:54:12.161Z,78.63
2019-03-02T05:56:49.458Z,78.60
2019-03-02T06:04:37.413Z,79.33
2019-03-02T06:11:17.824Z,80.54
2019-03-02T06:13:46.920Z,80.41
2019-03-02T06:16:18.700Z,78.60
2019-03-02T06:18:46.212Z,79.58
2019-03-02T06:21:14.835Z,79.73
2019-03-02T06:23:44.046Z,79.83
2019-03-02T06:26:13.201Z,78.33
2019-03-02T06:28:46.854Z,79.42
2019-03-02T06:31:19.168Z,79.04
2019-03-02T06:33:45.399Z,78.93
2019-03-02T06:36:14.608Z,78.94
2019-03-02T06:39:40.964Z,79.07
2019-03-02T06:42:09.824Z,78.86
2019-03-02T06:44:38.206Z,79.15
2019-03-02T06:47:07.491Z,79.17
2019-03-02T06:49:42.330Z,79.05
2019-03-02T06:52:14.134Z,78.96
2019-03-02T06:55:00.164Z,78.78
2019-03-02T06:57:25.869Z,78.56
2019-03-02T06:59:55.097Z,77.93
2019-03-02T07:02:24.348Z,78.57
2019-03-02T07:05:02.771Z,77.92
2019-03-02T07:07:35.657Z,78.71
2019-03-02T07:10:02.104Z,78.78
2019-03-02T07:12:45.353Z,79.12
2019-03-02T07:15:13.233Z,79.25
2019-03-02T07:18:02.158Z,79.23
2019-03-02T07:20:29.533Z,79.18
2019-03-02T07:23:01.362Z,78.75
2019-03-02T07:25:31.365Z,79.41
2019-03-02T07:28:13.743Z,79.69
2019-03-02T07:30:55.823Z,79.67
2019-03-02T07:33:38.645Z,79.19
2019-03-02T07:36:17.887Z,79.69
2019-03-02T07:39:00.384Z,80.05
2019-03-02T07:41:37.573Z,79.79
2019-03-02T07:44:08.118Z,80.27
2019-03-02T07:46:37.234Z,79.48
2019-03-02T07:49:12.757Z,79.11
2019-03-02T07:51:42.301Z,78.57
2019-03-02T07:54:13.478Z,78.52
2019-03-02T07:56:42.633Z,79.61
2019-03-02T07:59:12.032Z,79.77
2019-03-02T08:02:07.330Z,77.83
2019-03-02T08:04:46.148Z,78.83
2019-03-02T08:07:13.534Z,77.81
2019-03-02T08:09:42.622Z,79.04
2019-03-02T08:12:24.810Z,79.12
2019-03-02T08:14:57.045Z,77.81
2019-03-02T08:17:24.487Z,79.01
2019-03-02T08:20:09.054Z,79.03
2019-03-02T08:22:42.685Z,79.05
2019-03-02T08:25:20.213Z,79.14
2019-03-02T08:27:58.434Z,78.94
2019-03-02T08:30:35.440Z,79.28
2019-03-02T08:33:15.862Z,79.57
2019-03-02T08:35:57.247Z,79.60
2019-03-02T08:38:35.594Z,79.73
2019-03-02T08:41:08.001Z,79.57
2019-03-02T08:43:48.177Z,79.44
2019-03-02T08:46:21.543Z,79.49
2019-03-02T08:48:57.901Z,79.33
2019-03-02T08:51:39.192Z,79.25
2019-03-02T08:54:17.881Z,79.45
2019-03-02T08:56:55.540Z,79.05
2019-03-02T08:59:24.582Z,79.24
2019-03-02T09:02:01.739Z,78.70
2019-03-02T09:04:40.137Z,78.72
2019-03-02T09:07:28.078Z,78.66
2019-03-02T09:09:54.716Z,78.82
2019-03-02T09:12:25.512Z,78.18
2019-03-02T09:14:54.625Z,78.15
2019-03-02T09:17:23.985Z,78.00
2019-03-02T09:19:55.830Z,78.12
2019-03-02T09:22:30.127Z,78.00
2019-03-02T09:25:23.887Z,77.18
2019-03-02T09:28:02.816Z,74.75
2019-03-02T09:30:46.890Z,75.51
2019-03-02T09:33:15.899Z,75.55
2019-03-02T09:36:02.914Z,75.62
2019-03-02T09:38:39.503Z,75.68
2019-03-02T09:41:22.043Z,75.17
2019-03-02T09:44:00.979Z,75.14
2019-03-02T09:46:51.433Z,74.76
2019-03-02T09:49:27.816Z,74.50
2019-03-02T09:52:15.626Z,73.47
2019-03-02T09:54:54.624Z,73.13
2019-03-02T09:57:33.020Z,73.59
2019-03-02T10:00:10.695Z,72.77
2019-03-02T10:03:04.107Z,70.68
2019-03-02T10:05:40.400Z,71.91
2019-03-02T10:08:21.802Z,71.34
2019-03-02T10:13:59.645Z,72.38
2019-03-02T10:16:28.652Z,71.29
2019-03-02T10:18:57.833Z,68.76
2019-03-02T10:21:26.846Z,66.83
2019-03-02T10:23:57.799Z,67.78
2019-03-02T10:26:39.789Z,67.08
2019-03-02T10:29:25.140Z,67.13
2019-03-02T10:32:04.435Z,65.72
2019-03-02T10:34:50.579Z,65.31
2019-03-02T10:37:48.055Z,64.35
2019-03-02T10:40:16.016Z,64.49
2019-03-02T10:43:10.358Z,64.26
2019-03-02T10:45:46.034Z,64.05
2019-03-02T10:48:29.529Z,61.84
2019-03-02T10:50:59.237Z,63.30
2019-03-02T10:53:59.619Z,63.04
2019-03-02T10:57:12.195Z,62.27
2019-03-02T10:59:21.014Z,62.57
2019-03-02T11:02:01.210Z,62.44
2019-03-02T11:05:03.627Z,62.75
2019-03-02T11:08:10.399Z,62.79
2019-03-02T11:11:01.262Z,63.45
2019-03-02T11:13:47.294Z,63.10
2019-03-02T11:16:50.967Z,61.15
2019-03-02T11:19:47.385Z,60.69
2019-03-02T11:22:45.587Z,62.32
2019-03-02T11:25:32.250Z,60.68
2019-03-02T11:28:25.124Z,59.33
2019-03-02T11:31:31.650Z,57.49
2019-03-02T11:34:25.839Z,55.52
2019-03-02T11:37:43.087Z,53.77
2019-03-02T11:40:54.260Z,53.85
2019-03-02T11:43:58.081Z,53.78
2019-03-02T11:46:59.670Z,53.65
2019-03-02T11:50:05.312Z,50.90
2019-03-02T11:52:57.165Z,49.37
2019-03-02T11:55:40.555Z,50.13
2019-03-02T11:58:29.835Z,50.68
2019-03-02T12:01:34.159Z,50.68
2019-03-02T12:04:20.031Z,52.16
2019-03-02T12:07:15.793Z,51.39
2019-03-02T12:10:06.866Z,52.16
2019-03-02T12:13:22.495Z,52.10
2019-03-02T12:16:26.266Z,53.09
2019-03-02T12:19:11.991Z,54.40
2019-03-02T12:22:07.174Z,54.15
2019-03-02T12:25:14.971Z,53.53
2019-03-02T12:28:16.269Z,52.78
2019-03-02T12:31:18.065Z,53.54
2019-03-02T12:34:23.668Z,53.28
2019-03-02T12:37:21.547Z,54.19
2019-03-02T12:40:49.402Z,55.07
2019-03-02T12:43:45.844Z,53.32
2019-03-02T12:46:59.432Z,54.33
2019-03-02T12:49:50.117Z,55.79
2019-03-02T12:52:59.463Z,54.38
2019-03-02T12:56:24.422Z,54.82
2019-03-02T12:59:26.126Z,50.88
2019-03-02T13:12:45.742Z,53.40
2019-03-02T13:15:06.066Z,54.71
2019-03-02T13:15:13.157Z,52.70
2019-03-02T13:17:58.856Z,54.47
2019-03-02T13:21:06.783Z,53.56
2019-03-02T13:24:00.572Z,53.74
2019-03-02T13:27:16.937Z,54.15
2019-03-02T13:30:25.768Z,54.20
2019-03-02T13:33:42.060Z,53.39
2019-03-02T13:39:57.783Z,53.43
2019-03-02T13:43:04.697Z,52.79
2019-03-02T13:49:38.203Z,51.01
2019-03-02T13:52:44.325Z,51.43
2019-03-02T13:55:56.500Z,52.00
2019-03-02T13:59:02.188Z,51.15
2019-03-02T14:02:41.600Z,51.88
2019-03-02T14:09:04.086Z,53.77
2019-03-02T14:12:06.723Z,54.00
2019-03-02T14:15:01.820Z,56.30
2019-03-02T14:18:24.406Z,56.62
2019-03-02T14:21:13.221Z,57.65
2019-03-02T14:24:03.914Z,58.48
2019-03-02T14:26:53.448Z,59.61
2019-03-02T14:29:52.455Z,60.07
2019-03-02T14:33:10.340Z,62.28
2019-03-02T14:35:57.525Z,62.69
2019-03-02T14:39:22.017Z,63.26
2019-03-02T14:45:22.658Z,65.04
2019-03-02T14:48:14.820Z,65.81
2019-03-02T14:51:12.189Z,66.42
2019-03-02T14:54:40.162Z,66.83
2019-03-02T15:01:13.376Z,67.54
2019-03-02T15:04:06.225Z,67.70
2019-03-02T15:07:42.894Z,68.56
2019-03-02T15:11:18.590Z,69.90
2019-03-02T15:14:11.559Z,68.93
2019-03-02T15:17:45.167Z,69.84
2019-03-02T15:21:13.127Z,70.84
2019-03-02T15:24:14.856Z,70.04
2019-03-02T15:26:57.417Z,70.54
2019-03-02T15:29:57.975Z,70.79
2019-03-02T15:36:21.755Z,71.25
2019-03-02T15:39:37.523Z,71.13
2019-03-02T15:43:05.047Z,71.21
2019-03-02T15:45:59.897Z,71.03
2019-03-02T15:48:44.598Z,72.11
2019-03-02T15:51:49.499Z,73.13
2019-03-02T15:54:40.949Z,74.27
2019-03-02T15:57:39.467Z,74.57
2019-03-02T16:00:19.836Z,75.05
2019-03-02T16:03:25.223Z,75.15
2019-03-02T16:06:03.793Z,75.44
2019-03-02T16:08:39.882Z,77.76
2019-03-02T16:11:24.073Z,78.06
2019-03-02T16:14:05.906Z,77.11
2019-03-02T16:16:54.339Z,78.67
2019-03-02T16:19:45.690Z,78.60
2019-03-02T16:22:33.258Z,78.44
2019-03-02T16:25:17.069Z,77.17
2019-03-02T16:28:17.252Z,77.69
2019-03-02T16:30:54.145Z,79.00
2019-03-02T16:34:04.299Z,78.96
2019-03-02T16:36:54.613Z,79.59
2019-03-02T16:39:42.753Z,78.08
2019-03-02T16:42:28.259Z,77.73
2019-03-02T16:45:06.732Z,80.20
2019-03-02T16:47:48.487Z,81.39
2019-03-02T16:50:28.155Z,81.44
2019-03-02T16:53:19.492Z,82.32
2019-03-02T16:55:51.252Z,82.67
2019-03-02T16:58:34.939Z,83.64
2019-03-02T17:01:10.856Z,85.15
2019-03-02T17:03:53.965Z,85.23
2019-03-02T17:06:50.974Z,86.06
2019-03-02T17:09:28.927Z,86.30
2019-03-02T17:12:16.040Z,86.59
2019-03-02T17:15:12.554Z,87.56
2019-03-02T17:17:50.704Z,86.62
2019-03-02T17:20:43.435Z,87.45
2019-03-02T17:23:27.286Z,88.89
2019-03-02T17:26:16.260Z,89.06
2019-03-02T17:29:13.580Z,88.71
2019-03-02T17:32:00.027Z,88.96
2019-03-02T17:34:51.803Z,88.68
2019-03-02T17:37:28.812Z,89.03
2019-03-02T17:40:15.407Z,89.17
2019-03-02T17:43:12.345Z,87.64
2019-03-02T17:45:58.722Z,88.36
2019-03-02T17:48:59.954Z,88.47
2019-03-02T17:51:55.893Z,88.55
2019-03-02T17:54:51.313Z,88.94
2019-03-02T17:57:41.355Z,89.28
2019-03-02T18:00:30.082Z,88.98
2019-03-02T18:03:33.387Z,88.08
2019-03-02T18:06:23.892Z,87.83
2019-03-02T18:08:57.771Z,88.23
2019-03-02T18:11:46.565Z,88.02
2019-03-02T18:14:29.997Z,87.43
2019-03-02T18:17:30.180Z,87.89
2019-03-02T18:19:59.132Z,87.39
2019-03-02T18:22:28.028Z,87.13
2019-03-02T18:24:57.022Z,87.06
2019-03-02T18:27:25.923Z,87.02
2019-03-02T18:29:54.871Z,86.64
2019-03-02T18:32:23.720Z,86.77
2019-03-02T18:34:52.657Z,86.86
2019-03-02T18:37:21.618Z,87.05
2019-03-02T18:39:50.516Z,86.83
2019-03-02T18:42:19.463Z,87.06
2019-03-02T18:44:48.414Z,86.61
2019-03-02T18:47:17.331Z,86.77
2019-03-02T18:50:02.818Z,86.88
2019-03-02T18:52:39.184Z,86.78
2019-03-02T18:55:08.220Z,86.46
2019-03-02T18:57:37.214Z,86.81
2019-03-02T19:00:10.343Z,86.33
2019-03-02T19:02:39.235Z,86.60
2019-03-02T19:05:09.845Z,86.73
2019-03-02T19:07:39.670Z,86.45
2019-03-02T19:10:08.710Z,86.12
2019-03-02T19:12:36.912Z,87.81
2019-03-02T19:15:06.615Z,86.63
2019-03-02T19:17:42.664Z,86.41
2019-03-02T19:20:11.627Z,86.38
2019-03-02T19:22:40.614Z,86.82
2019-03-02T19:25:09.901Z,86.41
2019-03-02T19:27:38.824Z,86.65
2019-03-02T19:30:08.241Z,86.67
2019-03-02T19:32:37.144Z,86.70
2019-03-02T19:35:06.735Z,86.54
2019-03-02T19:37:35.643Z,86.61
2019-03-02T19:40:05.275Z,86.58
2019-03-02T19:42:34.199Z,86.32
2019-03-02T19:45:03.136Z,86.09
2019-03-02T19:47:32.061Z,86.04
2019-03-02T19:50:01.049Z,85.37
2019-03-02T19:52:30.315Z,85.41
2019-03-02T19:54:59.154Z,83.86
2019-03-02T19:57:28.255Z,82.56
2019-03-02T19:59:57.277Z,81.89
2019-03-02T20:02:26.330Z,82.80
2019-03-02T20:04:55.455Z,83.64
2019-03-02T20:07:30.758Z,83.70
2019-03-02T20:09:56.951Z,83.12
2019-03-02T20:12:26.015Z,83.11
2019-03-02T20:14:54.996Z,83.08
2019-03-02T20:17:24.033Z,83.60
2019-03-02T20:19:53.252Z,83.22
2019-03-02T20:22:22.661Z,82.96
2019-03-02T20:24:51.647Z,82.65
2019-03-02T20:27:20.631Z,82.15
2019-03-02T20:29:49.560Z,81.67
2019-03-02T20:32:18.477Z,81.50
2019-03-02T20:34:47.365Z,81.27
2019-03-02T20:37:16.326Z,81.24
2019-03-02T20:39:45.464Z,81.24
2019-03-02T20:42:14.619Z,79.27
2019-03-02T20:44:43.697Z,80.06
2019-03-02T20:47:12.538Z,80.54
2019-03-02T20:49:41.508Z,79.71
2019-03-02T20:52:10.485Z,79.20
2019-03-02T20:54:39.356Z,78.23
2019-03-02T20:57:08.321Z,77.49
2019-03-02T20:59:37.284Z,77.40
2019-03-02T21:02:06.263Z,76.97
2019-03-02T21:04:35.176Z,76.49
2019-03-02T21:07:04.121Z,75.48
2019-03-02T21:09:33.587Z,75.19
2019-03-02T21:12:03.080Z,74.17
2019-03-02T21:14:34.423Z,73.70
2019-03-02T21:17:03.688Z,73.38
2019-03-02T21:19:32.800Z,73.33
2019-03-02T21:22:01.956Z,72.67
2019-03-02T21:24:34.286Z,71.84
2019-03-02T21:27:03.466Z,71.98
2019-03-02T21:29:32.456Z,71.76
2019-03-02T21:32:01.420Z,70.26
2019-03-02T21:34:30.746Z,70.80
2019-03-02T21:37:00.615Z,70.88
2019-03-02T21:39:29.538Z,71.96
2019-03-02T21:41:58.528Z,72.09
2019-03-02T21:44:27.435Z,72.69
2019-03-02T21:46:57.446Z,73.11
2019-03-02T21:49:28.112Z,73.45
2019-03-02T21:51:56.970Z,73.34
2019-03-02T21:54:26.035Z,73.41
2019-03-02T21:56:54.977Z,73.71
2019-03-02T21:59:23.971Z,73.08
2019-03-02T22:01:52.900Z,73.08
2019-03-02T22:04:21.898Z,72.93
2019-03-02T22:06:50.812Z,73.13
2019-03-02T22:09:19.745Z,73.15
2019-03-02T22:11:49.055Z,73.14
2019-03-02T22:14:17.946Z,73.52
2019-03-02T22:16:46.925Z,73.38
2019-03-02T22:19:15.809Z,73.77
2019-03-02T22:21:44.764Z,74.08
2019-03-02T22:24:16.259Z,73.79
2019-03-02T22:26:45.215Z,74.04
2019-03-02T22:29:14.282Z,72.72
2019-03-02T22:31:43.104Z,73.57
2019-03-02T22:34:12.047Z,73.47
2019-03-02T22:36:41.007Z,74.03
2019-03-02T22:39:09.915Z,74.32
2019-03-02T22:41:38.857Z,73.52
2019-03-02T22:44:41.733Z,73.56
2019-03-02T22:46:44.843Z,74.53
2019-03-02T22:49:13.722Z,74.06
2019-03-02T22:51:42.663Z,74.67
2019-03-02T22:54:12.000Z,74.73
2019-03-02T22:56:40.942Z,75.05
2019-03-02T22:59:09.044Z,75.14
2019-03-02T23:02:18.480Z,75.25
2019-03-02T23:04:47.399Z,75.42
2019-03-02T23:07:17.230Z,75.23
2019-03-02T23:09:46.173Z,75.41
2019-03-02T23:12:16.086Z,75.61
2019-03-02T23:14:47.035Z,73.99
2019-03-02T23:17:16.103Z,74.71
2019-03-02T23:19:45.311Z,74.77
2019-03-02T23:22:18.393Z,74.78
2019-03-02T23:24:46.152Z,75.10
2019-03-02T23:27:30.447Z,74.84
2019-03-02T23:29:44.363Z,74.96
2019-03-02T23:32:13.419Z,74.97
2019-03-02T23:34:42.519Z,75.16
2019-03-02T23:37:11.611Z,75.06
2019-03-02T23:39:40.877Z,75.14
2019-03-02T23:42:12.297Z,75.01
2019-03-02T23:44:48.759Z,74.53
2019-03-02T23:47:17.893Z,74.41
2019-03-02T23:49:46.948Z,74.71
2019-03-02T23:52:15.938Z,74.44
2019-03-02T23:54:45.435Z,74.35
2019-03-02T23:57:16.503Z,72.68
2019-03-02T23:59:45.538Z,73.77
